Terminal Aerodrome Forecast
Issued by NWS Wilmington, NC

Home | Current Version | Previous Version | Text Only | Print | Product List | Glossary On
Versions: 1 2 3 4 5 6 7 8 9 10 11 12 13 14
880
FTUS42 KILM 181721 CCA
TAFMYR
TAF COR
KMYR 181721Z 1818/1918 VRB06KT P6SM OVC019
     FM182200 22004KT 4SM BR BKN020
     FM190300 VRB03KT 2SM BR BKN006
      TEMPO 1909/1913 1SM BR VV003
     FM191600 28005KT 6SM BR SCT016=

USA.gov is the U.S. government's official web portal to all federal, state and local government web resources and services.